Lake Fork, ID (83635)

3:09 AM MST on December 04, 2016 (GMT -0700)
Spring Mountain Ranch | | Change Station
Active Advisory: Winter Weather Advisory

Elev 5097 ft 44.91 °N, 116.08 °W | Updated 16 seconds ago

Light Snow
Light Snow Mist
26.3 °F
Feels Like 26 °F
N
0.0
Wind Variable Wind from West

Today
High -- | Low -- °F
--% Chance of Precip.
Yesterday
High -- | Low -- °F
Precip. -- in
Pressure 30.10 in
Visibility 6.0 miles
Clouds Overcast 3400 ft
Windchill 26 °F
Dew Point 26 °F
Humidity 98%
Rainfall 0.00 in
Snow Depth Not available.
8:05 AM 5:03 PM
Waxing Crescent, 21% visible
METAR KMYL 040951Z AUTO 00000KT 6SM -SN BR OVC034 M02/M04 A3002 RMK AO2 SNB00 SLP191 P0000 T10221044 $
Pressure 30.10 in
Visibility 6.0 miles
Clouds Overcast 3400 ft
Windchill 26 °F
Dew Point 26 °F
Humidity 98%
Rainfall 0.00 in
Snow Depth Not available.
8:05 AM 5:03 PM
Waxing Crescent, 21% visible
METAR KMYL 040951Z AUTO 00000KT 6SM -SN BR OVC034 M02/M04 A3002 RMK AO2 SNB00 SLP191 P0000 T10221044 $

10-Day Weather Forecast

Almanac

Astronomy

Dec. 04, 2016 Rise Set
Actual Time
Civil Twilight
Nautical Twilight
Astronomical Twilight
Moon
Length of Visible Light
Length of Day
Tomorrow will be .
, % of the Moon is Illuminated

Today's Extremes

State Highs State Lows

Community

WunderPhotos

Upload Photos

1,955,591 photos uploaded!

WunderBlog® & News

Nearby

Air Quality

  Air Quality AQ Index Pollutant
Not available.

Snow Depth

Station Depth Elevation

Earthquake Activity

City Distance Mag. Time & Date
Minimum magnitude displayed is 2.5.

Coastal Water Temperatures

Place Temperature

Stations

Nearby Weather Stations

Station Location Temp. Windchill Dew Point Humidity Wind Precip. Elev Updated Type
                   

Watches & Warnings

Winter Weather Advisory
Issued: 11:20 PM MST Dec. 3, 2016 – National Weather Service

... Winter Weather Advisory remains in effect from 5 am to 11 PM
MST Sunday...

* snow amounts... 4 to 8 inches between 5000-7000 ft msl and 8 to
13 inches above 7000 ft msl.

* Winds... southwesterly about 12 mph or less. Stronger winds
along ridgetops... with gusts 25 to 35 mph.

* Timing... snowfall will begin early Sunday morning with the
heaviest snow expected to occur Sunday morning and afternoon.

* Impacts... snow will accumulate on all mountain roads...
creating a travel hazard. Idaho highways 55... 17 and 21 will
become snow-covered.

Precautionary/preparedness actions...

A Winter Weather Advisory for snow means that periods of snow
will primarily cause travel difficulties. Be prepared for snow
covered roads and limited visibilities... and use caution while
driving.